• Join FlightAware (Why Join?)
  • Login
  • US Flag 
03:18AM EDT


 

Airport Tracker/Info


-or-


 

Live Flight TrackerFlight Track Log ✈ SWA1886 ✈ 29-Apr-2012 ✈ KBUR - KPHX

Flight Track Log - Related Links

Times and Time Zones

All times are in EDT time to prevent confusion due to time zone crossing. See the SWA1886 flight status page for this flight to view local times or setup timezone preferences in your user account.

Time Position Orientation Groundspeed Altitude Reporting Facility
EDT Latitude Longitude Course Direction KTS MPH feet Rate Location/Type
04:53PM 34.1756 -118.3658 266° West 175 201 2,300  Level Los Angeles Center
04:54PM 34.1725 -118.4186 North 160 184 4,200 2,400 Climbing Los Angeles Center
04:55PM 34.2308 -118.4175 16° North 120 138 7,200 2,640 Climbing Los Angeles Center
04:56PM 34.3022 -118.3919 17° North 191 220 9,500 2,340 Climbing Los Angeles Center
04:57PM 34.3864 -118.3614 21° North 265 305 11,900 2,520 Climbing Los Angeles Center
04:58PM 34.4789 -118.3186 53° Northeast 286 329 14,600 2,580 Climbing Los Angeles Center
04:59PM 34.5414 -118.2194 54° Northeast 310 357 17,200 2,220 Climbing Los Angeles Center
05:00PM 34.5972 -118.1250 79° East 335 386 19,100 1,920 Climbing Los Angeles Center
05:01PM 34.6158 -118.0042 112° Southeast 345 397 21,100 1,980 Climbing Los Angeles Center
05:02PM 34.5739 -117.8772 110° East 353 406 23,100 1,800 Climbing Los Angeles Center
05:03PM 34.5339 -117.7453 110° East 397 457 24,800 1,740 Climbing Los Angeles Center
05:04PM 34.4939 -117.6133 110° East 407 468 26,600 1,500 Climbing Los Angeles Center
05:05PM 34.4517 -117.4764 110° East 412 474 27,900 1,260 Climbing Los Angeles Center
05:06PM 34.4033 -117.3197 106° East 438 504 29,300 1,320 Climbing Los Angeles Center
05:07PM 34.3731 -117.1908 111° Southeast 443 510 30,600 1,620 Climbing Los Angeles Center
05:08PM 34.3283 -117.0469 111° Southeast 455 524 32,500 1,200 Climbing Los Angeles Center
05:09PM 34.2794 -116.8906 114° Southeast 448 516 33,000 240 Climbing Los Angeles Center
05:10PM 34.2258 -116.7442 110° East 454 522 33,000  Level Los Angeles Center
05:11PM 34.1828 -116.6033 112° Southeast 454 522 33,000  Level Los Angeles Center
05:12PM 34.1353 -116.4600 107° East 454 522 33,000  Level Los Angeles Center
05:13PM 34.0981 -116.3144 111° Southeast 454 522 33,000  Level Los Angeles Center
05:14PM 34.0542 -116.1739 111° Southeast 448 516 33,000  Level Los Angeles Center
05:15PM 34.0083 -116.0311 111° Southeast 448 516 33,000  Level Los Angeles Center
05:16PM 33.9622 -115.8883 111° Southeast 448 516 33,000  Level Los Angeles Center
05:17PM 33.9161 -115.7458 123° Southeast 453 521 33,000 -60 Level Los Angeles Center
05:18PM 33.8486 -115.6186 128° Southeast 448 516 32,900  Descending Los Angeles Center
05:19PM 33.7731 -115.5039 129° Southeast 442 509 33,000  Climbing Los Angeles Center
05:20PM 33.6953 -115.3897 116° Southeast 442 509 33,000  Level Los Angeles Center
05:21PM 33.6422 -115.2578 98° East 442 509 33,000  Level Los Angeles Center
05:22PM 33.6267 -115.1208 96° East 436 502 33,000  Level Los Angeles Center
05:23PM 33.6128 -114.9664 96° East 446 513 33,000  Level Los Angeles Center
05:24PM 33.5986 -114.8094 101° East 464 534 33,000  Level Los Angeles Center
05:25PM 33.5739 -114.6553 103° East 470 541 33,000 -840 Level Los Angeles Center
05:26PM 33.5447 -114.5011 103° East 470 541 31,400 -2,100 Descending Los Angeles Center
05:27PM 33.5081 -114.3047 103° East 460 529 28,100 -2,280 Descending Albuquerque Center
05:28PM 33.4808 -114.1669 103° East 436 502 26,100 -1,500 Descending Albuquerque Center
05:29PM 33.4500 -114.0094 104° East 409 471 25,000 -540 Descending Albuquerque Center
05:30PM 33.4242 -113.8819 104° East 397 457 25,000  Level Albuquerque Center
05:31PM 33.3975 -113.7542 103° East 397 457 25,000 -300 Level Albuquerque Center
05:32PM 33.3722 -113.6244 104° East 399 459 24,400 -1,260 Descending Albuquerque Center
05:33PM 33.3444 -113.4950 104° East 400 460 22,400 -1,440 Descending Albuquerque Center
05:34PM 33.3192 -113.3708 104° East 394 453 21,500 -1,500 Descending Albuquerque Center
05:35PM 33.2892 -113.2250 99° East 382 440 19,300 -2,040 Descending Albuquerque Center
05:36PM 33.2744 -113.1078 89° East 365 420 17,400 -1,140 Descending Albuquerque Center
05:38PM 33.2764 -112.9889 88° East 357 411 17,000 -300 Descending Albuquerque Center
05:39PM 33.2794 -112.8761 88° East 344 396 16,800 -540 Descending Albuquerque Center
05:40PM 33.2819 -112.7617 89° East 343 395 16,000 -780 Descending Albuquerque Center
05:41PM 33.2833 -112.6483 88° East 342 394 15,200 -1,200 Descending Albuquerque Center
05:42PM 33.2869 -112.5269 88° East 338 389 13,500 -1,440 Descending Albuquerque Center
05:43PM 33.2903 -112.4186 87° East 325 374 12,200 -1,260 Descending Albuquerque Center
05:44PM 33.2942 -112.3211 85° East 293 337 11,000 -780 Descending Albuquerque Center
05:45PM 33.3022 -112.2153 85° East 266 306 10,600 -780 Descending Albuquerque Center
05:46PM 33.3083 -112.1275 77° East 255 293 9,400 -1,140 Descending Albuquerque Center
05:47PM 33.3231 -112.0489 74° East 256 295 8,300 -1,140 Descending Albuquerque Center
05:48PM 33.3428 -111.9689 87° East 249 287 7,100 -900 Descending Albuquerque Center
05:49PM 33.3458 -111.8858 65° Northeast 250 288 6,500 -780 Descending Albuquerque Center
05:50PM 33.3711 -111.8208 323° Northwest 243 280 5,500 -900 Descending Albuquerque Center
05:51PM 33.4136 -111.8589 292° West 193 222 4,700 -1,500 Descending Albuquerque Center
05:52PM 33.4333 -111.9167 270° West 148 170 2,500 -1,440 Descending Phoenix TRACON
05:53PM 33.4333 -111.9667 270° West 144 166 1,700 -780 Descending Phoenix TRACON